Time;durP1;ratioP1;P1;durP2;ratioP2;P2;SDS_P1;SDS_P2;PMS_P1;PMS_P2;Temp;Humidity;BMP_temperature;BMP_pressure;BME280_temperature;BME280_humidity;BME280_pressure;Samples;Min_cycle;Max_cycle;Signal;HPM_P1;HPM_P2
2021/04/10 00:01:49;;;;;;;9.00;2.70;;;;;;;11.08;31.23;95929.69;4970497;28;20487;-67
2021/04/10 00:04:14;;;;;;;3.25;2.25;;;;;;;10.96;31.39;95936.91;4968357;28;20511;-67
2021/04/10 00:06:41;;;;;;;2.38;1.90;;;;;;;11.18;31.62;95937.59;4962934;28;20090;-67
2021/04/10 00:09:08;;;;;;;3.67;2.10;;;;;;;11.00;32.16;95938.28;4972651;28;20027;-67
2021/04/10 00:11:34;;;;;;;3.25;2.15;;;;;;;11.15;31.25;95937.88;4969474;28;20494;-67
2021/04/10 00:14:03;;;;;;;3.33;2.53;;;;;;;10.82;32.13;95935.50;4967658;28;20412;-67
2021/04/10 00:16:28;;;;;;;5.85;2.65;;;;;;;10.91;32.07;95940.91;4969654;28;20106;-67
2021/04/10 00:18:54;;;;;;;4.45;1.58;;;;;;;11.11;27.04;95936.50;4969295;28;20051;-68
2021/04/10 00:21:20;;;;;;;11.40;1.98;;;;;;;11.44;25.60;95929.09;4964723;28;20413;-67
2021/04/10 00:23:46;;;;;;;3.03;1.50;;;;;;;11.18;25.18;95930.53;4971345;28;20034;-67
2021/04/10 00:26:13;;;;;;;3.38;1.60;;;;;;;11.25;23.33;95922.06;4972422;28;20035;-67
2021/04/10 00:28:39;;;;;;;2.25;1.95;;;;;;;11.26;23.39;95921.06;4973841;28;20018;-68
2021/04/10 00:31:08;;;;;;;4.35;1.60;;;;;;;11.42;23.01;95923.97;4971044;28;20027;-66
2021/04/10 00:33:39;;;;;;;2.28;1.75;;;;;;;11.14;22.70;95915.94;4969895;28;20023;-67
2021/04/10 00:36:05;;;;;;;2.83;1.95;;;;;;;11.21;22.63;95924.13;4974475;28;20125;-67
2021/04/10 00:38:32;;;;;;;1.65;1.50;;;;;;;11.26;21.81;95915.81;4972390;28;20031;-68
2021/04/10 00:40:59;;;;;;;2.42;1.60;;;;;;;11.51;20.96;95913.53;4976276;28;20034;-67
2021/04/10 00:43:25;;;;;;;4.25;1.63;;;;;;;11.37;21.53;95906.91;4966684;28;20414;-67
2021/04/10 00:45:52;;;;;;;3.83;1.50;;;;;;;11.35;21.73;95914.94;4975435;28;20035;-67
2021/04/10 00:48:18;;;;;;;2.47;1.50;;;;;;;11.55;20.72;95907.84;4970049;28;20105;-67
2021/04/10 00:50:45;;;;;;;6.43;1.77;;;;;;;11.17;22.04;95904.31;4975262;28;20495;-68
2021/04/10 00:53:12;;;;;;;3.80;1.60;;;;;;;11.33;21.30;95901.09;4977384;28;20029;-67
2021/04/10 00:55:40;;;;;;;5.25;1.70;;;;;;;11.14;21.58;95899.31;4975228;28;20054;-67
2021/04/10 00:58:06;;;;;;;2.15;1.50;;;;;;;11.13;22.54;95895.03;4980818;28;20030;-68
2021/04/10 01:00:31;;;;;;;2.17;2.05;;;;;;;10.87;22.81;95896.41;4975759;28;20031;-67
2021/04/10 01:02:57;;;;;;;1.83;1.70;;;;;;;10.71;23.54;95901.38;4977889;28;20054;-68
2021/04/10 01:05:23;;;;;;;6.00;1.70;;;;;;;10.80;23.50;95892.69;4971303;28;20581;-68
2021/04/10 01:07:48;;;;;;;4.13;1.75;;;;;;;10.86;23.37;95891.31;4970121;28;20027;-68
2021/04/10 01:10:15;;;;;;;2.90;1.88;;;;;;;11.03;23.54;95889.75;4975705;28;20026;-68
2021/04/10 01:12:59;;;;;;;1.63;1.50;;;;;;;11.15;23.20;95888.63;4973690;28;20049;-68
2021/04/10 01:15:49;;;;;;;2.63;1.50;;;;;;;10.95;23.89;95889.63;4982288;28;20042;-67
2021/04/10 01:18:21;;;;;;;1.92;1.75;;;;;;;11.02;23.68;95881.00;4972162;28;20022;-68
2021/04/10 01:21:05;;;;;;;3.88;1.95;;;;;;;10.84;24.44;95890.59;4962172;28;20060;-67
2021/04/10 01:23:55;;;;;;;2.83;1.52;;;;;;;10.82;24.95;95887.25;4971035;28;20083;-68
2021/04/10 01:26:39;;;;;;;4.20;2.00;;;;;;;10.88;24.70;95882.28;4966434;28;20094;-68
2021/04/10 01:29:08;;;;;;;2.75;1.95;;;;;;;10.60;25.70;95882.13;4968689;28;20077;-68
2021/04/10 01:31:38;;;;;;;9.30;1.90;;;;;;;10.73;25.37;95881.84;4971999;28;20031;-67
2021/04/10 01:34:08;;;;;;;3.38;1.90;;;;;;;10.60;25.62;95874.22;4967242;28;20630;-67
2021/04/10 01:36:39;;;;;;;1.83;1.65;;;;;;;10.58;26.10;95883.22;4971435;28;20102;-68
2021/04/10 01:39:09;;;;;;;2.10;1.90;;;;;;;10.45;26.49;95872.97;4967447;28;20495;-67
2021/04/10 01:41:40;;;;;;;4.78;1.70;;;;;;;10.74;25.35;95888.78;4968787;28;20047;-67
2021/04/10 01:44:07;;;;;;;4.60;1.60;;;;;;;10.79;25.50;95877.00;4968171;28;20030;-67
2021/04/10 01:46:35;;;;;;;3.95;2.00;;;;;;;10.55;25.87;95879.09;4969422;28;20080;-67
2021/04/10 01:49:02;;;;;;;2.50;1.90;;;;;;;10.75;25.38;95873.84;4970836;28;20109;-67
2021/04/10 01:51:29;;;;;;;3.70;1.90;;;;;;;10.64;25.49;95873.94;4973455;28;20077;-67
2021/04/10 01:53:56;;;;;;;3.47;1.40;;;;;;;10.38;26.38;95870.00;4976730;28;20026;-67
2021/04/10 01:56:23;;;;;;;1.90;1.70;;;;;;;10.65;25.64;95870.34;4976081;28;20390;-68
2021/04/10 01:58:49;;;;;;;8.15;2.08;;;;;;;10.58;25.72;95870.06;4976524;28;20027;-67
2021/04/10 02:01:16;;;;;;;7.65;1.92;;;;;;;10.54;25.81;95863.41;4972180;28;20018;-67
2021/04/10 02:03:45;;;;;;;2.60;1.70;;;;;;;10.26;26.34;95861.41;4974740;28;20027;-67
2021/04/10 02:06:13;;;;;;;3.05;1.88;;;;;;;10.14;26.57;95863.31;4967986;28;20487;-67
2021/04/10 02:08:42;;;;;;;4.72;1.92;;;;;;;10.03;27.68;95866.88;4975241;28;20097;-67
2021/04/10 02:11:09;;;;;;;2.72;1.67;;;;;;;10.02;28.39;95864.41;4974893;28;20491;-67
2021/04/10 02:13:36;;;;;;;2.42;1.67;;;;;;;9.91;28.71;95859.25;4968622;28;20138;-67
2021/04/10 02:16:03;;;;;;;4.72;1.67;;;;;;;9.87;28.92;95861.31;4974388;28;20065;-67
2021/04/10 02:18:29;;;;;;;2.70;1.80;;;;;;;9.79;28.90;95846.22;4974865;28;20027;-67
2021/04/10 02:20:59;;;;;;;4.90;2.60;;;;;;;9.89;32.84;95851.50;4975313;28;20034;-67
2021/04/10 02:23:24;;;;;;;8.18;3.08;;;;;;;9.80;39.42;95845.25;4968555;28;20030;-67
2021/04/10 02:25:50;;;;;;;4.60;3.00;;;;;;;9.69;42.80;95842.69;4968005;28;20860;-67
2021/04/10 02:28:15;;;;;;;9.52;3.30;;;;;;;9.62;44.52;95841.56;4962946;28;20039;-68
2021/04/10 02:30:41;;;;;;;5.75;3.83;;;;;;;9.68;46.35;95838.41;4970614;28;20023;-67
2021/04/10 02:33:29;;;;;;;5.50;3.60;;;;;;;9.42;46.88;95837.06;4968741;28;20032;-67
2021/04/10 02:35:56;;;;;;;4.10;3.70;;;;;;;9.41;47.16;95840.66;4976948;28;20070;-68
2021/04/10 02:38:25;;;;;;;3.55;2.90;;;;;;;9.22;47.48;95835.31;4962578;28;20529;-67
2021/04/10 02:40:58;;;;;;;6.53;3.10;;;;;;;9.02;47.71;95835.19;4965816;28;20533;-67
2021/04/10 02:43:30;;;;;;;5.57;2.92;;;;;;;8.94;48.30;95834.97;4966108;28;21190;-67
2021/04/10 02:46:01;;;;;;;3.05;2.72;;;;;;;8.92;47.29;95829.03;4967459;28;20058;-67
2021/04/10 02:48:34;;;;;;;8.70;2.70;;;;;;;8.87;47.52;95819.75;4969082;28;20031;-67
2021/04/10 02:51:01;;;;;;;3.58;2.75;;;;;;;8.81;47.06;95822.03;4968707;28;20308;-67
2021/04/10 02:53:32;;;;;;;2.58;2.38;;;;;;;8.87;45.93;95827.63;4966252;28;20023;-67
2021/04/10 02:55:59;;;;;;;5.07;2.80;;;;;;;8.80;46.90;95815.97;4982268;28;20023;-67
2021/04/10 02:58:27;;;;;;;4.95;2.78;;;;;;;8.86;47.22;95819.91;4971172;28;20105;-67
2021/04/10 03:00:54;;;;;;;3.22;2.78;;;;;;;8.76;48.23;95816.34;4967236;28;20027;-67
2021/04/10 03:03:23;;;;;;;3.13;2.65;;;;;;;8.67;48.63;95813.53;4975814;28;20110;-66
2021/04/10 03:05:49;;;;;;;3.92;2.65;;;;;;;8.66;49.09;95806.63;4967321;28;20035;-67
2021/04/10 03:08:17;;;;;;;11.80;3.03;;;;;;;8.68;49.54;95812.59;4964905;28;20031;-67
2021/04/10 03:10:48;;;;;;;7.57;4.03;;;;;;;8.93;48.94;95814.94;4965806;28;20034;-67
2021/04/10 03:13:17;;;;;;;4.07;2.97;;;;;;;8.66;48.59;95804.00;4968093;28;20602;-67
2021/04/10 03:15:43;;;;;;;3.50;3.15;;;;;;;8.55;48.86;95812.75;4969724;28;20023;-67
2021/04/10 03:18:11;;;;;;;9.40;3.60;;;;;;;8.46;49.38;95803.81;4967068;28;20011;-67
2021/04/10 03:20:38;;;;;;;4.88;3.42;;;;;;;8.41;50.40;95807.78;4968494;28;20018;-67
2021/04/10 03:23:04;;;;;;;6.22;3.53;;;;;;;8.32;51.56;95797.09;4965275;28;20546;-67
2021/04/10 03:25:30;;;;;;;5.25;3.17;;;;;;;8.35;50.51;95800.41;4965651;28;20710;-66
2021/04/10 03:27:56;;;;;;;4.75;3.30;;;;;;;8.51;50.09;95800.03;4976079;28;20058;-67
2021/04/10 03:30:23;;;;;;;3.28;2.72;;;;;;;8.38;50.41;95795.72;4969100;28;20030;-67
2021/04/10 03:32:51;;;;;;;3.28;2.80;;;;;;;8.30;50.81;95801.63;4969101;28;20107;-67
2021/04/10 03:35:16;;;;;;;5.65;3.20;;;;;;;8.23;50.64;95807.50;4975775;28;20114;-67
2021/04/10 03:37:42;;;;;;;4.43;2.63;;;;;;;8.22;50.15;95797.97;4966288;28;20500;-67
2021/04/10 03:40:08;;;;;;;3.55;2.28;;;;;;;8.21;50.30;95802.38;4970218;28;20034;-67
2021/04/10 03:42:41;;;;;;;4.85;2.75;;;;;;;8.17;51.76;95808.81;4975268;28;20113;-67
2021/04/10 03:45:11;;;;;;;3.28;2.88;;;;;;;8.02;52.65;95801.22;4969012;28;20047;-67
2021/04/10 03:47:37;;;;;;;7.28;3.10;;;;;;;7.92;51.93;95802.94;4965552;28;20086;-67
2021/04/10 03:50:07;;;;;;;6.70;3.00;;;;;;;7.96;51.96;95801.72;4971974;28;20797;-67
2021/04/10 03:52:33;;;;;;;4.28;2.88;;;;;;;7.96;52.34;95801.72;4970652;28;20027;-68
2021/04/10 03:54:59;;;;;;;2.83;2.50;;;;;;;8.00;52.09;95805.75;4965676;28;20105;-67
2021/04/10 03:57:27;;;;;;;2.42;2.33;;;;;;;8.06;51.47;95807.06;4975355;28;20023;-68
2021/04/10 03:59:52;;;;;;;4.68;2.97;;;;;;;7.99;52.35;95796.22;4974889;28;20503;-67
2021/04/10 04:02:18;;;;;;;2.80;2.60;;;;;;;7.92;52.65;95795.06;4971090;28;20058;-67
2021/04/10 04:04:43;;;;;;;4.78;2.97;;;;;;;7.81;52.82;95795.06;4970570;28;20090;-68
2021/04/10 04:07:09;;;;;;;3.13;2.80;;;;;;;7.81;52.03;95781.97;4978616;28;20065;-68
2021/04/10 04:09:36;;;;;;;4.00;2.85;;;;;;;7.78;52.06;95782.22;4977357;28;20023;-67
2021/04/10 04:12:03;;;;;;;3.28;2.97;;;;;;;7.68;53.23;95788.22;4973939;28;20023;-67
2021/04/10 04:14:29;;;;;;;8.15;3.10;;;;;;;7.58;53.00;95784.63;4973505;28;20039;-68
2021/04/10 04:16:55;;;;;;;4.20;2.80;;;;;;;7.55;52.61;95784.88;4977106;28;20034;-67
2021/04/10 04:19:20;;;;;;;3.55;3.25;;;;;;;7.50;52.24;95790.47;4971699;28;20053;-67
2021/04/10 04:21:46;;;;;;;4.35;3.00;;;;;;;7.46;53.72;95789.03;4974920;28;20115;-67
2021/04/10 04:24:12;;;;;;;4.03;3.30;;;;;;;7.25;53.65;95792.38;4968913;28;20096;-67
2021/04/10 04:26:37;;;;;;;3.65;3.00;;;;;;;7.16;53.38;95791.31;4974136;28;20078;-67
2021/04/10 04:29:03;;;;;;;9.02;6.35;;;;;;;7.10;53.77;95796.22;4971147;28;20026;-67
2021/04/10 04:31:29;;;;;;;11.07;9.35;;;;;;;6.94;53.79;95788.66;4976085;28;20025;-66
2021/04/10 04:33:54;;;;;;;10.60;9.60;;;;;;;6.82;52.70;95798.28;4974417;28;20056;-67
2021/04/10 04:36:20;;;;;;;10.23;8.68;;;;;;;6.85;51.51;95806.75;4973050;28;20018;-67
2021/04/10 04:38:45;;;;;;;5.82;3.95;;;;;;;6.98;51.42;95797.97;4972426;28;20117;-66
2021/04/10 04:41:11;;;;;;;6.18;3.80;;;;;;;6.92;52.15;95795.81;4969492;28;20027;-66
2021/04/10 04:43:36;;;;;;;6.45;3.30;;;;;;;6.93;52.06;95800.94;4973108;28;20029;-66
2021/04/10 04:46:02;;;;;;;5.43;4.07;;;;;;;6.82;52.97;95806.13;4976479;28;20031;-66
2021/04/10 04:48:28;;;;;;;7.47;3.33;;;;;;;6.73;52.94;95797.19;4974618;28;20019;-66
2021/04/10 04:50:54;;;;;;;6.70;3.85;;;;;;;6.71;53.37;95801.72;4972953;28;20085;-67
2021/04/10 04:53:21;;;;;;;5.90;3.88;;;;;;;6.67;52.67;95808.13;4975094;28;20033;-66
2021/04/10 04:55:47;;;;;;;7.13;5.90;;;;;;;6.59;53.68;95811.31;4969511;28;20486;-66
2021/04/10 04:58:13;;;;;;;7.63;6.78;;;;;;;6.46;54.09;95808.78;4980773;28;20160;-66
2021/04/10 05:00:39;;;;;;;8.15;5.38;;;;;;;6.45;53.22;95809.72;4974554;28;20038;-67
2021/04/10 05:03:04;;;;;;;7.82;4.47;;;;;;;6.43;54.24;95812.47;4970764;28;20027;-66
2021/04/10 05:05:30;;;;;;;6.18;3.80;;;;;;;6.59;53.00;95812.16;4975377;28;20023;-67
2021/04/10 05:07:56;;;;;;;6.10;3.22;;;;;;;6.54;52.53;95814.28;4975605;28;20019;-66
2021/04/10 05:10:22;;;;;;;6.68;3.55;;;;;;;6.56;52.77;95815.00;4972118;28;20030;-67
2021/04/10 05:12:48;;;;;;;4.05;3.42;;;;;;;6.52;53.72;95812.72;4970758;28;20043;-66
2021/04/10 05:15:14;;;;;;;7.57;3.92;;;;;;;6.53;54.02;95809.16;4979267;28;20030;-67
2021/04/10 05:17:40;;;;;;;4.10;3.72;;;;;;;6.56;52.86;95816.78;4970316;28;20027;-66
2021/04/10 05:20:08;;;;;;;3.70;3.38;;;;;;;6.42;53.59;95816.03;4976145;28;20039;-66
2021/04/10 05:22:34;;;;;;;8.50;3.60;;;;;;;6.37;52.61;95812.91;4972495;28;20030;-67
2021/04/10 05:24:59;;;;;;;5.68;4.00;;;;;;;6.48;52.45;95814.72;4974473;28;20564;-66
2021/04/10 05:27:25;;;;;;;3.58;3.28;;;;;;;6.49;53.47;95824.25;4970144;28;20027;-66
2021/04/10 05:29:51;;;;;;;5.90;4.60;;;;;;;6.65;52.20;95817.88;4976771;28;20026;-66
2021/04/10 05:32:17;;;;;;;5.25;3.88;;;;;;;6.73;51.82;95818.13;4974274;28;20024;-66
2021/04/10 05:34:43;;;;;;;5.88;4.38;;;;;;;6.84;51.13;95822.56;4963358;28;20399;-66
2021/04/10 05:37:08;;;;;;;4.80;3.80;;;;;;;6.82;52.17;95827.06;4973633;28;20027;-67
2021/04/10 05:39:34;;;;;;;7.22;4.20;;;;;;;6.83;51.82;95833.97;4972402;28;20026;-66
2021/04/10 05:42:00;;;;;;;5.60;3.88;;;;;;;6.86;51.61;95826.75;4971331;28;20053;-66
2021/04/10 05:44:25;;;;;;;5.57;4.10;;;;;;;6.89;51.20;95833.53;4966035;28;20185;-66
2021/04/10 05:46:51;;;;;;;4.53;3.92;;;;;;;6.96;50.55;95844.34;4967366;28;20050;-66
2021/04/10 05:49:17;;;;;;;5.05;3.60;;;;;;;7.04;49.81;95836.78;4969052;28;20023;-67
2021/04/10 05:51:42;;;;;;;5.75;2.90;;;;;;;7.11;49.43;95830.09;4981112;28;20140;-67
2021/04/10 05:54:08;;;;;;;5.25;3.40;;;;;;;7.12;50.15;95833.56;4970485;28;20487;-66
2021/04/10 05:56:36;;;;;;;3.85;3.30;;;;;;;7.29;49.35;95842.75;4964414;28;20024;-67
2021/04/10 05:59:01;;;;;;;6.18;3.22;;;;;;;7.41;49.05;95833.13;4967013;28;20081;-66
2021/04/10 06:01:28;;;;;;;3.25;2.95;;;;;;;7.57;48.84;95824.88;4970279;28;20019;-67
2021/04/10 06:04:00;;;;;;;3.70;3.40;;;;;;;7.64;48.78;95823.47;4971069;28;20027;-67
2021/04/10 06:06:26;;;;;;;6.00;3.60;;;;;;;7.59;49.52;95822.97;4964805;28;20511;-67
2021/04/10 06:08:53;;;;;;;12.15;3.80;;;;;;;7.70;50.07;95830.84;4969293;28;20027;-67
2021/04/10 06:11:19;;;;;;;5.65;3.65;;;;;;;7.67;49.92;95828.47;4967425;28;20125;-67
2021/04/10 06:13:45;;;;;;;5.18;3.15;;;;;;;7.56;48.56;95825.84;4969786;28;20747;-67
2021/04/10 06:16:11;;;;;;;3.65;2.83;;;;;;;7.71;48.48;95824.66;4967402;28;20487;-67
2021/04/10 06:18:37;;;;;;;3.40;3.08;;;;;;;7.58;50.02;95831.78;4969944;28;20031;-67
2021/04/10 06:21:03;;;;;;;7.95;2.92;;;;;;;7.66;50.05;95828.56;4977519;28;20114;-67
2021/04/10 06:23:28;;;;;;;4.00;3.15;;;;;;;7.79;50.20;95833.69;4970237;28;20034;-67
2021/04/10 06:25:54;;;;;;;3.28;2.80;;;;;;;7.85;48.30;95835.84;4970223;28;20046;-68
2021/04/10 06:28:20;;;;;;;8.38;2.88;;;;;;;7.97;47.09;95832.22;4973432;28;20034;-67
2021/04/10 06:30:46;;;;;;;2.75;2.53;;;;;;;8.01;47.63;95835.44;4977176;28;20038;-67
2021/04/10 06:33:12;;;;;;;3.60;2.85;;;;;;;8.23;46.23;95829.28;4971872;28;20048;-68
2021/04/10 06:35:38;;;;;;;9.00;3.47;;;;;;;8.32;46.19;95830.34;4971989;28;20087;-68
2021/04/10 06:38:04;;;;;;;6.78;3.58;;;;;;;8.52;44.70;95834.03;4973168;28;20372;-68
2021/04/10 06:40:30;;;;;;;6.35;4.00;;;;;;;8.45;45.93;95832.81;4969314;28;20039;-68
2021/04/10 06:42:57;;;;;;;7.03;5.63;;;;;;;8.46;46.63;95824.81;4974880;28;20026;-68
2021/04/10 06:45:23;;;;;;;7.40;5.60;;;;;;;8.68;44.93;95815.22;4973433;28;20030;-68
2021/04/10 06:47:52;;;;;;;11.40;4.00;;;;;;;8.74;42.45;95808.63;4972413;28;20041;-66
2021/04/10 06:50:18;;;;;;;3.33;3.00;;;;;;;9.01;38.50;95820.41;4971343;28;20109;-69
2021/04/10 06:52:47;;;;;;;8.73;4.57;;;;;;;9.14;42.07;95812.31;4966124;28;20519;-69
2021/04/10 06:55:17;;;;;;;6.68;5.32;;;;;;;9.23;40.11;95806.25;4970930;28;20105;-68
2021/04/10 06:57:46;;;;;;;6.63;4.72;;;;;;;9.19;41.75;95810.13;4972082;28;20027;-69
2021/04/10 07:00:13;;;;;;;5.15;4.25;;;;;;;9.25;41.63;95806.16;4969700;28;20034;-68
2021/04/10 07:02:41;;;;;;;5.00;4.40;;;;;;;9.38;40.97;95801.50;4970799;28;20074;-69
2021/04/10 07:05:07;;;;;;;5.20;4.70;;;;;;;9.23;43.46;95803.63;4966743;28;20039;-68
2021/04/10 07:07:34;;;;;;;4.82;3.92;;;;;;;9.14;46.06;95797.38;4971793;28;20034;-68
2021/04/10 07:10:03;;;;;;;5.82;4.80;;;;;;;9.16;46.32;95795.44;4969072;28;20053;-69
2021/04/10 07:12:29;;;;;;;11.68;3.30;;;;;;;9.14;44.90;95792.13;4971117;28;21533;-69
2021/04/10 07:14:55;;;;;;;9.88;3.38;;;;;;;9.30;39.66;95794.28;4969168;28;20030;-68
2021/04/10 07:17:21;;;;;;;11.65;2.85;;;;;;;9.29;38.73;95799.66;4969050;28;20054;-67
2021/04/10 07:19:48;;;;;;;6.30;3.35;;;;;;;9.28;39.89;95803.25;4968121;28;20039;-68
2021/04/10 07:22:16;;;;;;;5.35;4.80;;;;;;;9.36;39.67;95806.03;4971179;28;20102;-68
2021/04/10 07:24:45;;;;;;;5.90;3.97;;;;;;;9.48;38.89;95811.22;4964009;28;20081;-66
2021/04/10 07:27:17;;;;;;;4.65;3.10;;;;;;;9.72;36.79;95800.38;4971519;28;20399;-67
2021/04/10 07:29:42;;;;;;;14.13;4.20;;;;;;;9.74;37.64;95799.28;4969539;28;20054;-66
2021/04/10 07:32:34;;;;;;;8.50;3.60;;;;;;;9.81;39.68;95794.31;4977144;28;20026;-66
2021/04/10 07:35:01;;;;;;;3.75;3.45;;;;;;;9.93;37.62;95800.28;4971169;28;20036;-69
2021/04/10 07:37:39;;;;;;;8.18;4.30;;;;;;;10.06;37.62;95807.09;4970333;28;20023;-68
2021/04/10 07:40:11;;;;;;;5.47;3.15;;;;;;;10.23;37.17;95809.06;4968616;28;20027;-68
2021/04/10 07:42:41;;;;;;;10.65;3.22;;;;;;;10.36;35.43;95808.78;4974044;28;20118;-65
2021/04/10 07:45:32;;;;;;;4.22;3.63;;;;;;;10.54;34.77;95810.75;4968446;28;20485;-62
2021/04/10 07:48:05;;;;;;;5.05;3.10;;;;;;;10.50;34.50;95812.00;4971294;28;20034;-67
2021/04/10 07:50:35;;;;;;;3.55;1.70;;;;;;;10.70;32.39;95812.84;4969225;28;20026;-69
2021/04/10 07:53:33;;;;;;;6.30;2.00;;;;;;;10.74;32.98;95808.97;4968690;28;20027;-67
2021/04/10 07:56:01;;;;;;;1.80;1.70;;;;;;;10.86;31.81;95799.13;4951791;28;20038;-69
2021/04/10 07:58:37;;;;;;;2.25;1.67;;;;;;;10.85;31.55;95798.28;4967948;28;20038;-65
2021/04/10 08:01:05;;;;;;;3.28;1.60;;;;;;;10.71;31.54;95790.78;4969411;28;20045;-68
2021/04/10 08:03:51;;;;;;;1.98;1.77;;;;;;;10.58;32.32;95799.81;4967454;28;20027;-69
2021/04/10 08:06:19;;;;;;;1.70;1.60;;;;;;;10.69;32.48;95787.47;4969774;28;20051;-68
2021/04/10 08:08:47;;;;;;;2.70;2.50;;;;;;;10.78;31.46;95791.91;4968164;28;20427;-65
2021/04/10 08:11:14;;;;;;;2.60;2.40;;;;;;;10.64;32.75;95792.34;4969601;28;20076;-67
2021/04/10 08:13:55;;;;;;;2.85;2.58;;;;;;;10.66;32.21;95793.03;4973582;28;20043;-66
2021/04/10 08:16:23;;;;;;;3.75;2.75;;;;;;;10.85;32.00;95800.91;4964016;28;20454;-64
2021/04/10 08:18:57;;;;;;;4.95;1.70;;;;;;;10.86;32.09;95794.66;4967202;28;20038;-68
2021/04/10 08:21:32;;;;;;;3.70;3.33;;;;;;;10.97;32.20;95793.66;4972268;28;20045;-66
2021/04/10 08:23:59;;;;;;;2.45;2.25;;;;;;;11.02;32.50;95786.16;4972121;28;20071;-65
2021/04/10 08:26:25;;;;;;;3.83;2.10;;;;;;;11.15;32.80;95785.03;4968084;28;20038;-66
2021/04/10 08:28:51;;;;;;;3.22;1.90;;;;;;;11.56;31.12;95784.75;4970384;28;20456;-70
2021/04/10 08:31:17;;;;;;;3.17;1.90;;;;;;;11.79;31.15;95785.19;4966603;28;20035;-69
2021/04/10 08:33:44;;;;;;;4.88;2.20;;;;;;;11.88;31.13;95794.03;4972156;28;20106;-68
2021/04/10 08:36:11;;;;;;;2.90;1.60;;;;;;;11.95;30.00;95792.47;4974306;28;20033;-68
2021/04/10 08:38:41;;;;;;;3.05;2.25;;;;;;;11.96;30.07;95794.13;4971478;28;20022;-69
2021/04/10 08:41:09;;;;;;;2.00;1.70;;;;;;;12.20;29.71;95792.75;4968317;28;20519;-66
2021/04/10 08:43:39;;;;;;;3.60;2.63;;;;;;;12.11;30.14;95791.81;4973424;28;20031;-69
2021/04/10 08:46:09;;;;;;;3.97;1.80;;;;;;;12.11;29.99;95793.66;4973228;28;20030;-69
2021/04/10 08:48:35;;;;;;;2.92;1.85;;;;;;;12.10;30.15;95792.00;4971417;28;20023;-67
2021/04/10 08:51:06;;;;;;;3.90;2.10;;;;;;;12.30;29.91;95798.81;4972373;28;20117;-68
2021/04/10 08:53:35;;;;;;;2.10;1.85;;;;;;;12.52;29.21;95799.34;4973582;28;20610;-65
2021/04/10 08:56:07;;;;;;;4.22;1.83;;;;;;;12.54;29.66;95800.00;4973316;28;20042;-67
2021/04/10 08:58:35;;;;;;;4.25;2.13;;;;;;;12.43;30.50;95808.97;4977126;28;20025;-69
2021/04/10 09:01:03;;;;;;;2.97;1.88;;;;;;;12.72;29.65;95804.44;4970894;28;20113;-65
2021/04/10 09:03:48;;;;;;;2.72;1.83;;;;;;;12.86;28.39;95798.59;4974224;28;20416;-69
2021/04/10 09:06:22;;;;;;;5.75;2.15;;;;;;;12.94;28.83;95803.13;4968897;28;20031;-67
2021/04/10 09:08:51;;;;;;;1.88;1.67;;;;;;;12.99;28.32;95792.09;4974934;28;20023;-70
2021/04/10 09:11:21;;;;;;;4.85;1.90;;;;;;;13.27;27.52;95792.78;4978880;28;20038;-69
2021/04/10 09:13:50;;;;;;;3.35;1.88;;;;;;;13.49;27.41;95797.72;4970705;28;20047;-69
2021/04/10 09:16:29;;;;;;;2.13;1.63;;;;;;;13.22;28.09;95794.22;4972503;28;20174;-68
2021/04/10 09:19:10;;;;;;;2.00;1.90;;;;;;;13.19;27.52;95792.72;4974113;28;20073;-69
2021/04/10 09:21:44;;;;;;;7.75;2.00;;;;;;;13.09;29.91;95792.81;4973960;28;20024;-69
2021/04/10 09:24:42;;;;;;;12.40;2.03;;;;;;;13.41;28.30;95785.25;4988543;28;20027;-69
2021/04/10 09:27:19;;;;;;;3.30;1.80;;;;;;;13.36;27.96;95793.63;4968160;28;20027;-71
2021/04/10 09:29:54;;;;;;;2.67;1.60;;;;;;;13.22;28.40;95797.69;4972543;28;20069;-69
2021/04/10 09:32:41;;;;;;;3.17;1.55;;;;;;;13.20;28.24;95798.84;4978460;28;20023;-69
2021/04/10 09:35:20;;;;;;;2.22;2.00;;;;;;;13.38;28.69;95796.97;4985371;28;20156;-69
2021/04/10 09:37:54;;;;;;;3.40;2.42;;;;;;;13.46;28.98;95789.09;4969126;28;20564;-69
2021/04/10 09:40:23;;;;;;;1.70;1.45;;;;;;;13.58;28.38;95794.94;4970894;28;20399;-71
2021/04/10 09:43:02;;;;;;;5.60;1.75;;;;;;;13.63;29.83;95789.19;4974052;28;20109;-70
2021/04/10 09:45:34;;;;;;;4.07;1.88;;;;;;;13.84;28.97;95790.59;4970724;28;20049;-66
2021/04/10 09:48:03;;;;;;;5.78;1.65;;;;;;;13.97;27.46;95793.59;4974497;28;20025;-68
2021/04/10 09:50:40;;;;;;;2.78;2.40;;;;;;;13.91;27.97;95786.31;4969583;28;20019;-70
2021/04/10 09:53:15;;;;;;;3.00;2.40;;;;;;;13.80;28.66;95783.94;4958434;28;20437;-67
2021/04/10 09:55:59;;;;;;;4.95;2.13;;;;;;;13.77;29.62;95776.34;4969462;28;20027;-68
2021/04/10 09:58:25;;;;;;;2.75;2.08;;;;;;;13.83;28.98;95775.72;4966458;28;20030;-68
2021/04/10 10:01:01;;;;;;;5.70;2.45;;;;;;;13.85;29.43;95766.59;4966978;28;20074;-67
2021/04/10 10:03:28;;;;;;;1.80;1.70;;;;;;;13.67;29.70;95774.66;4969529;28;20023;-65
2021/04/10 10:05:54;;;;;;;8.35;2.05;;;;;;;13.67;29.48;95779.94;4972024;28;20023;-67
2021/04/10 10:08:28;;;;;;;3.40;1.90;;;;;;;13.66;30.28;95773.00;4970500;28;20480;-67
2021/04/10 10:10:59;;;;;;;3.95;1.80;;;;;;;13.64;30.53;95777.63;4973175;28;20027;-66
2021/04/10 10:13:31;;;;;;;2.67;1.80;;;;;;;13.51;29.74;95766.63;4967663;28;20073;-68
2021/04/10 10:15:56;;;;;;;2.38;1.67;;;;;;;13.55;29.39;95766.19;4969894;28;20023;-67
2021/04/10 10:18:25;;;;;;;5.38;1.90;;;;;;;13.71;29.82;95765.41;4971764;28;20034;-69
2021/04/10 10:21:14;;;;;;;3.22;1.90;;;;;;;13.73;29.50;95757.31;4972273;28;20027;-67
2021/04/10 10:23:48;;;;;;;5.70;2.10;;;;;;;13.87;30.16;95756.69;4970537;28;20050;-68
2021/04/10 10:26:24;;;;;;;4.70;1.90;;;;;;;13.94;29.17;95751.59;4966676;28;20031;-69
2021/04/10 10:29:11;;;;;;;4.55;2.10;;;;;;;14.33;29.26;95736.91;4982944;28;20058;-68
2021/04/10 10:31:47;;;;;;;1.80;1.70;;;;;;;14.59;30.29;95736.78;4975380;28;20034;-69
2021/04/10 10:34:16;;;;;;;5.70;2.50;;;;;;;14.90;28.41;95722.03;4972849;28;20064;-68
2021/04/10 10:36:44;;;;;;;3.65;1.65;;;;;;;15.54;26.60;95715.88;4976132;28;20089;-65
2021/04/10 10:39:30;;;;;;;5.53;2.30;;;;;;;16.23;26.86;95713.53;4973456;28;20089;-68
2021/04/10 10:41:56;;;;;;;;;;;;;;;17.15;25.15;95717.94;4972380;28;20031;-68
2021/04/10 10:44:23;;;;;;;5.00;1.92;;;;;;;17.32;24.09;95715.91;4970702;28;19957;-65
2021/04/10 10:47:05;;;;;;;1.98;1.75;;;;;;;17.45;23.34;95709.09;4957109;28;20049;-68
2021/04/10 10:49:31;;;;;;;2.05;1.70;;;;;;;17.57;25.37;95717.44;4966803;28;20027;-67
2021/04/10 10:51:59;;;;;;;4.22;1.67;;;;;;;18.28;25.87;95719.53;4969334;28;20118;-68
2021/04/10 10:54:38;;;;;;;2.15;1.75;;;;;;;18.78;23.28;95713.38;4966893;28;20027;-69
2021/04/10 10:57:13;;;;;;;4.70;2.08;;;;;;;18.65;24.55;95707.94;4969312;28;20034;-67
2021/04/10 10:59:39;;;;;;;3.25;1.80;;;;;;;18.29;24.68;95715.84;4968817;28;20042;-69
2021/04/10 11:02:07;;;;;;;7.63;2.15;;;;;;;17.79;24.49;95710.34;4975219;28;20498;-66
2021/04/10 11:04:35;;;;;;;4.70;1.98;;;;;;;17.39;25.68;95704.50;4967354;28;20100;-68
2021/04/10 11:07:03;;;;;;;2.45;2.05;;;;;;;16.64;26.33;95704.41;4969886;28;20041;-68
2021/04/10 11:09:33;;;;;;;4.88;1.67;;;;;;;16.55;26.68;95701.84;4969727;28;20030;-67
2021/04/10 11:12:06;;;;;;;4.00;1.90;;;;;;;16.24;27.77;95707.22;4969553;28;20038;-68
2021/04/10 11:14:34;;;;;;;3.60;2.50;;;;;;;16.39;26.01;95699.31;4971598;28;20060;-67
2021/04/10 11:17:04;;;;;;;3.72;2.72;;;;;;;15.79;27.86;95694.53;4973148;28;20085;-67
2021/04/10 11:19:38;;;;;;;4.82;2.00;;;;;;;15.52;28.66;95695.81;4971240;28;20502;-66
2021/04/10 11:22:14;;;;;;;3.10;2.70;;;;;;;15.28;28.12;95684.31;4963804;28;20579;-66
2021/04/10 11:24:49;;;;;;;4.80;2.10;;;;;;;14.83;29.70;95676.81;4966844;28;20035;-65
2021/04/10 11:27:15;;;;;;;6.30;1.55;;;;;;;14.83;30.71;95674.16;4962278;28;20042;-65
2021/04/10 11:29:59;;;;;;;1.98;1.55;;;;;;;14.99;30.02;95672.47;4972116;28;20031;-66
2021/04/10 11:32:42;;;;;;;5.43;1.60;;;;;;;15.28;30.16;95671.91;4971820;28;20053;-66
2021/04/10 11:35:14;;;;;;;1.95;1.35;;;;;;;15.23;30.25;95670.75;4967922;28;20031;-64
2021/04/10 11:37:44;;;;;;;1.90;1.80;;;;;;;15.07;31.17;95668.97;4968062;28;20033;-65
2021/04/10 11:40:24;;;;;;;4.82;2.30;;;;;;;15.01;30.50;95667.84;4965214;28;20050;-67
2021/04/10 11:42:55;;;;;;;5.03;1.60;;;;;;;14.92;30.30;95666.19;4969271;28;20029;-64
2021/04/10 11:45:42;;;;;;;4.45;2.20;;;;;;;14.79;32.24;95662.25;4968256;28;20027;-66
2021/04/10 11:48:19;;;;;;;2.50;2.00;;;;;;;14.98;30.68;95652.28;4966558;28;20399;-66